CZSJ

Sandy Lake Airport

Sandy Lake, Ontario, Canada
METAR CZSJ 210532Z AUTO VRB02KT 1 1/2SM BR CLR 10/09 A3009 RMK SLP198
Observed Flight Rules
Aug-21 @ 05:32 UTC (12 hours ago) Instrument Flight Rules
Wind Visibility Clouds Conditions
Variable at 2 knots 1 1/2 miles
  • Clear skies
  • Mist
Temperatures Readings
Current 10°C / 50°F
Dewpoint 9°C / 48°F
Humidity 94%
Altimeter 30.09" Hg
Pressure 1019.8 hPa
Elevation 290
METAR CZSJ 210532Z AUTO VRB02KT 1 1/2SM BR CLR 10/09 A3009 RMK SLP198
Observed Flight Rules
Aug-21 @ 05:32 UTC
(12 hours ago)
IFR
Wind Visibility
Variable at 2 knots 1 1/2 miles
Clouds
  • Clear skies
Conditions
  • Mist
Temperature Dewpoint
10°C / 50°F 9°C / 48°F
Humidity Altimeter Pressure
94% 30.09" Hg 1019.8 hPa